sensor_id;sensor_type;location;lat;lon;timestamp;P1;durP1;ratioP1;P2;durP2;ratioP2
3307;SDS011;1666;48.898;9.182;2023-02-01T00:02:01;4.78;;;3.10;;
3307;SDS011;1666;48.898;9.182;2023-02-01T00:04:31;5.00;;;3.42;;
3307;SDS011;1666;48.898;9.182;2023-02-01T00:07:02;5.03;;;3.45;;
3307;SDS011;1666;48.898;9.182;2023-02-01T00:09:32;4.03;;;2.85;;
3307;SDS011;1666;48.898;9.182;2023-02-01T00:12:05;4.75;;;2.75;;
3307;SDS011;1666;48.898;9.182;2023-02-01T00:14:35;4.20;;;2.80;;
3307;SDS011;1666;48.898;9.182;2023-02-01T00:17:05;4.97;;;3.25;;
3307;SDS011;1666;48.898;9.182;2023-02-01T00:19:35;6.35;;;3.47;;
3307;SDS011;1666;48.898;9.182;2023-02-01T00:22:05;7.65;;;3.33;;
3307;SDS011;1666;48.898;9.182;2023-02-01T00:24:35;4.65;;;3.15;;
3307;SDS011;1666;48.898;9.182;2023-02-01T00:27:08;3.95;;;2.90;;
3307;SDS011;1666;48.898;9.182;2023-02-01T00:29:44;5.60;;;3.20;;
3307;SDS011;1666;48.898;9.182;2023-02-01T00:32:13;4.32;;;2.67;;
3307;SDS011;1666;48.898;9.182;2023-02-01T00:34:44;5.50;;;3.22;;
3307;SDS011;1666;48.898;9.182;2023-02-01T00:37:13;5.07;;;3.00;;
3307;SDS011;1666;48.898;9.182;2023-02-01T00:39:43;3.72;;;2.50;;
3307;SDS011;1666;48.898;9.182;2023-02-01T00:42:16;5.70;;;3.25;;
3307;SDS011;1666;48.898;9.182;2023-02-01T00:44:46;3.65;;;2.70;;
3307;SDS011;1666;48.898;9.182;2023-02-01T00:47:16;5.00;;;3.08;;
3307;SDS011;1666;48.898;9.182;2023-02-01T00:49:46;4.03;;;3.15;;
3307;SDS011;1666;48.898;9.182;2023-02-01T00:52:16;4.60;;;2.60;;
3307;SDS011;1666;48.898;9.182;2023-02-01T00:54:46;4.85;;;3.05;;
3307;SDS011;1666;48.898;9.182;2023-02-01T00:57:18;4.90;;;2.90;;
3307;SDS011;1666;48.898;9.182;2023-02-01T00:59:48;4.32;;;2.45;;
3307;SDS011;1666;48.898;9.182;2023-02-01T01:02:18;4.13;;;2.70;;
3307;SDS011;1666;48.898;9.182;2023-02-01T01:04:48;4.22;;;2.90;;
3307;SDS011;1666;48.898;9.182;2023-02-01T01:07:18;4.05;;;2.67;;
3307;SDS011;1666;48.898;9.182;2023-02-01T01:09:48;4.38;;;2.88;;
3307;SDS011;1666;48.898;9.182;2023-02-01T01:12:20;5.63;;;2.60;;
3307;SDS011;1666;48.898;9.182;2023-02-01T01:14:50;3.38;;;2.25;;
3307;SDS011;1666;48.898;9.182;2023-02-01T01:17:20;3.70;;;2.17;;
3307;SDS011;1666;48.898;9.182;2023-02-01T01:19:50;4.90;;;2.80;;
3307;SDS011;1666;48.898;9.182;2023-02-01T01:22:20;3.70;;;2.78;;
3307;SDS011;1666;48.898;9.182;2023-02-01T01:24:49;4.00;;;2.95;;
3307;SDS011;1666;48.898;9.182;2023-02-01T01:27:22;2.55;;;2.10;;
3307;SDS011;1666;48.898;9.182;2023-02-01T01:29:52;3.22;;;2.33;;
3307;SDS011;1666;48.898;9.182;2023-02-01T01:32:22;4.07;;;2.60;;
3307;SDS011;1666;48.898;9.182;2023-02-01T01:34:51;4.13;;;2.50;;
3307;SDS011;1666;48.898;9.182;2023-02-01T01:37:21;3.03;;;2.17;;
3307;SDS011;1666;48.898;9.182;2023-02-01T01:39:51;3.75;;;2.42;;
3307;SDS011;1666;48.898;9.182;2023-02-01T01:42:24;3.78;;;2.58;;
3307;SDS011;1666;48.898;9.182;2023-02-01T01:44:58;5.05;;;2.70;;
3307;SDS011;1666;48.898;9.182;2023-02-01T01:47:31;4.00;;;2.53;;
3307;SDS011;1666;48.898;9.182;2023-02-01T01:50:05;3.55;;;2.45;;
3307;SDS011;1666;48.898;9.182;2023-02-01T01:52:37;3.17;;;2.58;;
3307;SDS011;1666;48.898;9.182;2023-02-01T01:55:08;3.30;;;2.33;;
3307;SDS011;1666;48.898;9.182;2023-02-01T01:57:42;2.55;;;1.90;;
3307;SDS011;1666;48.898;9.182;2023-02-01T02:00:16;3.03;;;2.05;;
3307;SDS011;1666;48.898;9.182;2023-02-01T02:02:53;2.55;;;2.05;;
3307;SDS011;1666;48.898;9.182;2023-02-01T02:05:25;2.47;;;1.95;;
3307;SDS011;1666;48.898;9.182;2023-02-01T02:07:57;3.47;;;2.05;;
3307;SDS011;1666;48.898;9.182;2023-02-01T02:10:28;2.83;;;2.15;;
3307;SDS011;1666;48.898;9.182;2023-02-01T02:13:15;2.92;;;2.22;;
3307;SDS011;1666;48.898;9.182;2023-02-01T02:18:26;2.53;;;1.80;;
3307;SDS011;1666;48.898;9.182;2023-02-01T02:21:09;2.80;;;2.10;;
3307;SDS011;1666;48.898;9.182;2023-02-01T02:23:57;2.88;;;2.00;;
3307;SDS011;1666;48.898;9.182;2023-02-01T02:26:53;3.70;;;2.13;;
3307;SDS011;1666;48.898;9.182;2023-02-01T02:33:03;4.38;;;2.35;;
3307;SDS011;1666;48.898;9.182;2023-02-01T02:35:54;2.20;;;1.77;;
3307;SDS011;1666;48.898;9.182;2023-02-01T02:38:30;3.20;;;1.88;;
3307;SDS011;1666;48.898;9.182;2023-02-01T02:41:09;2.50;;;1.83;;
3307;SDS011;1666;48.898;9.182;2023-02-01T02:44:08;2.33;;;1.90;;
3307;SDS011;1666;48.898;9.182;2023-02-01T02:46:54;2.80;;;2.22;;
3307;SDS011;1666;48.898;9.182;2023-02-01T02:49:44;3.20;;;1.90;;
3307;SDS011;1666;48.898;9.182;2023-02-01T02:52:45;2.45;;;1.70;;
3307;SDS011;1666;48.898;9.182;2023-02-01T02:55:33;3.05;;;1.80;;
3307;SDS011;1666;48.898;9.182;2023-02-01T02:58:06;2.80;;;1.90;;
3307;SDS011;1666;48.898;9.182;2023-02-01T03:00:50;2.83;;;2.10;;
3307;SDS011;1666;48.898;9.182;2023-02-01T03:03:36;3.28;;;1.98;;
3307;SDS011;1666;48.898;9.182;2023-02-01T03:06:19;3.03;;;1.95;;
3307;SDS011;1666;48.898;9.182;2023-02-01T03:08:51;2.72;;;1.73;;
3307;SDS011;1666;48.898;9.182;2023-02-01T03:11:24;2.28;;;1.98;;
3307;SDS011;1666;48.898;9.182;2023-02-01T03:14:15;2.83;;;2.17;;
3307;SDS011;1666;48.898;9.182;2023-02-01T03:16:46;2.88;;;2.30;;
3307;SDS011;1666;48.898;9.182;2023-02-01T03:19:21;3.40;;;2.15;;
3307;SDS011;1666;48.898;9.182;2023-02-01T03:21:55;2.85;;;2.25;;
3307;SDS011;1666;48.898;9.182;2023-02-01T03:24:31;3.05;;;2.33;;
3307;SDS011;1666;48.898;9.182;2023-02-01T03:27:07;3.75;;;2.60;;
3307;SDS011;1666;48.898;9.182;2023-02-01T03:29:43;5.50;;;2.45;;
3307;SDS011;1666;48.898;9.182;2023-02-01T03:32:17;3.60;;;2.60;;
3307;SDS011;1666;48.898;9.182;2023-02-01T03:34:47;4.70;;;2.30;;
3307;SDS011;1666;48.898;9.182;2023-02-01T03:37:19;3.08;;;2.35;;
3307;SDS011;1666;48.898;9.182;2023-02-01T03:39:56;3.08;;;2.17;;
3307;SDS011;1666;48.898;9.182;2023-02-01T03:42:30;4.32;;;2.20;;
3307;SDS011;1666;48.898;9.182;2023-02-01T03:45:06;3.25;;;2.00;;
3307;SDS011;1666;48.898;9.182;2023-02-01T03:47:41;2.55;;;2.10;;
3307;SDS011;1666;48.898;9.182;2023-02-01T03:50:16;2.90;;;2.17;;
3307;SDS011;1666;48.898;9.182;2023-02-01T03:52:50;5.50;;;2.17;;
3307;SDS011;1666;48.898;9.182;2023-02-01T03:55:26;3.63;;;2.42;;
3307;SDS011;1666;48.898;9.182;2023-02-01T03:57:58;3.35;;;2.45;;
3307;SDS011;1666;48.898;9.182;2023-02-01T04:00:33;3.40;;;2.13;;
3307;SDS011;1666;48.898;9.182;2023-02-01T04:03:03;3.55;;;2.33;;
3307;SDS011;1666;48.898;9.182;2023-02-01T04:05:35;2.53;;;2.10;;
3307;SDS011;1666;48.898;9.182;2023-02-01T04:08:05;3.63;;;2.53;;
3307;SDS011;1666;48.898;9.182;2023-02-01T04:10:37;2.90;;;1.90;;
3307;SDS011;1666;48.898;9.182;2023-02-01T04:13:07;2.58;;;2.10;;
3307;SDS011;1666;48.898;9.182;2023-02-01T04:15:37;2.88;;;2.00;;
3307;SDS011;1666;48.898;9.182;2023-02-01T04:18:07;2.55;;;1.90;;
3307;SDS011;1666;48.898;9.182;2023-02-01T04:20:37;2.70;;;1.80;;
3307;SDS011;1666;48.898;9.182;2023-02-01T04:23:07;2.17;;;1.98;;
3307;SDS011;1666;48.898;9.182;2023-02-01T04:25:39;5.03;;;2.05;;
3307;SDS011;1666;48.898;9.182;2023-02-01T04:28:09;2.70;;;1.90;;
3307;SDS011;1666;48.898;9.182;2023-02-01T04:30:39;2.15;;;1.63;;
3307;SDS011;1666;48.898;9.182;2023-02-01T04:33:09;3.17;;;2.20;;
3307;SDS011;1666;48.898;9.182;2023-02-01T04:35:40;2.35;;;1.73;;
3307;SDS011;1666;48.898;9.182;2023-02-01T04:38:10;2.55;;;1.80;;
3307;SDS011;1666;48.898;9.182;2023-02-01T04:40:42;4.65;;;1.90;;
3307;SDS011;1666;48.898;9.182;2023-02-01T04:43:12;3.40;;;1.58;;
3307;SDS011;1666;48.898;9.182;2023-02-01T04:45:46;1.98;;;1.73;;
3307;SDS011;1666;48.898;9.182;2023-02-01T04:48:17;2.35;;;1.80;;
3307;SDS011;1666;48.898;9.182;2023-02-01T04:50:50;4.13;;;1.90;;
3307;SDS011;1666;48.898;9.182;2023-02-01T04:53:21;3.25;;;1.85;;
3307;SDS011;1666;48.898;9.182;2023-02-01T04:55:54;2.95;;;1.95;;
3307;SDS011;1666;48.898;9.182;2023-02-01T04:58:24;2.78;;;1.85;;
3307;SDS011;1666;48.898;9.182;2023-02-01T05:00:54;2.45;;;1.90;;
3307;SDS011;1666;48.898;9.182;2023-02-01T05:03:24;2.83;;;2.00;;
3307;SDS011;1666;48.898;9.182;2023-02-01T05:05:54;2.72;;;2.08;;
3307;SDS011;1666;48.898;9.182;2023-02-01T05:08:24;2.63;;;1.83;;
3307;SDS011;1666;48.898;9.182;2023-02-01T05:10:57;3.00;;;2.03;;
3307;SDS011;1666;48.898;9.182;2023-02-01T05:13:28;2.67;;;2.10;;
3307;SDS011;1666;48.898;9.182;2023-02-01T05:16:11;3.55;;;1.90;;
3307;SDS011;1666;48.898;9.182;2023-02-01T05:18:41;2.80;;;1.98;;
3307;SDS011;1666;48.898;9.182;2023-02-01T05:21:10;5.05;;;2.40;;
3307;SDS011;1666;48.898;9.182;2023-02-01T05:23:40;2.67;;;1.95;;
3307;SDS011;1666;48.898;9.182;2023-02-01T05:26:25;2.85;;;1.90;;
3307;SDS011;1666;48.898;9.182;2023-02-01T05:28:55;3.25;;;1.70;;
3307;SDS011;1666;48.898;9.182;2023-02-01T05:31:25;3.63;;;2.28;;
3307;SDS011;1666;48.898;9.182;2023-02-01T05:33:55;3.10;;;1.95;;
3307;SDS011;1666;48.898;9.182;2023-02-01T05:36:25;4.13;;;2.20;;
3307;SDS011;1666;48.898;9.182;2023-02-01T05:38:55;3.85;;;2.50;;
3307;SDS011;1666;48.898;9.182;2023-02-01T05:41:27;3.80;;;1.92;;
3307;SDS011;1666;48.898;9.182;2023-02-01T05:43:57;5.50;;;1.90;;
3307;SDS011;1666;48.898;9.182;2023-02-01T05:46:27;2.90;;;1.73;;
3307;SDS011;1666;48.898;9.182;2023-02-01T05:48:57;2.47;;;1.88;;
3307;SDS011;1666;48.898;9.182;2023-02-01T05:51:27;1.92;;;1.63;;
3307;SDS011;1666;48.898;9.182;2023-02-01T05:53:57;4.35;;;2.15;;
3307;SDS011;1666;48.898;9.182;2023-02-01T05:56:29;3.45;;;2.35;;
3307;SDS011;1666;48.898;9.182;2023-02-01T05:58:59;4.93;;;2.15;;
3307;SDS011;1666;48.898;9.182;2023-02-01T06:01:29;3.08;;;1.60;;
3307;SDS011;1666;48.898;9.182;2023-02-01T06:03:58;5.95;;;2.05;;
3307;SDS011;1666;48.898;9.182;2023-02-01T06:06:29;2.30;;;1.83;;
3307;SDS011;1666;48.898;9.182;2023-02-01T06:08:58;6.78;;;1.70;;
3307;SDS011;1666;48.898;9.182;2023-02-01T06:11:31;2.60;;;1.77;;
3307;SDS011;1666;48.898;9.182;2023-02-01T06:14:01;2.38;;;1.90;;
3307;SDS011;1666;48.898;9.182;2023-02-01T06:16:31;2.85;;;1.80;;
3307;SDS011;1666;48.898;9.182;2023-02-01T06:19:01;5.20;;;2.63;;
3307;SDS011;1666;48.898;9.182;2023-02-01T06:21:30;3.38;;;2.40;;
3307;SDS011;1666;48.898;9.182;2023-02-01T06:24:00;5.13;;;2.33;;
3307;SDS011;1666;48.898;9.182;2023-02-01T06:26:33;3.53;;;2.60;;
3307;SDS011;1666;48.898;9.182;2023-02-01T06:29:02;6.55;;;2.97;;
3307;SDS011;1666;48.898;9.182;2023-02-01T06:31:32;6.30;;;2.88;;
3307;SDS011;1666;48.898;9.182;2023-02-01T06:34:02;6.22;;;3.80;;
3307;SDS011;1666;48.898;9.182;2023-02-01T06:36:32;5.60;;;2.53;;
3307;SDS011;1666;48.898;9.182;2023-02-01T06:39:02;9.02;;;3.58;;
3307;SDS011;1666;48.898;9.182;2023-02-01T06:41:34;5.28;;;2.88;;
3307;SDS011;1666;48.898;9.182;2023-02-01T06:44:05;8.98;;;3.55;;
3307;SDS011;1666;48.898;9.182;2023-02-01T06:46:35;8.77;;;3.78;;
3307;SDS011;1666;48.898;9.182;2023-02-01T06:49:05;7.15;;;3.38;;
3307;SDS011;1666;48.898;9.182;2023-02-01T06:51:34;7.85;;;3.50;;
3307;SDS011;1666;48.898;9.182;2023-02-01T06:54:08;5.45;;;3.70;;
3307;SDS011;1666;48.898;9.182;2023-02-01T06:56:41;8.13;;;3.45;;
3307;SDS011;1666;48.898;9.182;2023-02-01T06:59:10;10.15;;;4.38;;
3307;SDS011;1666;48.898;9.182;2023-02-01T07:01:42;6.38;;;3.47;;
3307;SDS011;1666;48.898;9.182;2023-02-01T07:04:12;12.45;;;4.80;;
3307;SDS011;1666;48.898;9.182;2023-02-01T07:06:42;7.45;;;3.72;;
3307;SDS011;1666;48.898;9.182;2023-02-01T07:09:12;13.10;;;4.80;;
3307;SDS011;1666;48.898;9.182;2023-02-01T07:11:45;10.52;;;4.80;;
3307;SDS011;1666;48.898;9.182;2023-02-01T07:14:14;9.50;;;4.53;;
3307;SDS011;1666;48.898;9.182;2023-02-01T07:16:44;8.35;;;3.85;;
3307;SDS011;1666;48.898;9.182;2023-02-01T07:19:14;9.80;;;4.28;;
3307;SDS011;1666;48.898;9.182;2023-02-01T07:21:44;10.48;;;4.20;;
3307;SDS011;1666;48.898;9.182;2023-02-01T07:24:14;6.53;;;4.13;;
3307;SDS011;1666;48.898;9.182;2023-02-01T07:26:46;9.93;;;4.03;;
3307;SDS011;1666;48.898;9.182;2023-02-01T07:29:17;8.73;;;4.35;;
3307;SDS011;1666;48.898;9.182;2023-02-01T07:31:47;10.05;;;4.65;;
3307;SDS011;1666;48.898;9.182;2023-02-01T07:34:17;12.20;;;4.22;;
3307;SDS011;1666;48.898;9.182;2023-02-01T07:36:47;7.78;;;4.22;;
3307;SDS011;1666;48.898;9.182;2023-02-01T07:39:16;9.60;;;5.28;;
3307;SDS011;1666;48.898;9.182;2023-02-01T07:41:49;10.52;;;4.53;;
3307;SDS011;1666;48.898;9.182;2023-02-01T07:44:19;11.88;;;4.18;;
3307;SDS011;1666;48.898;9.182;2023-02-01T07:46:49;14.95;;;5.63;;
3307;SDS011;1666;48.898;9.182;2023-02-01T07:49:19;8.77;;;4.47;;
3307;SDS011;1666;48.898;9.182;2023-02-01T07:51:49;13.07;;;4.65;;
3307;SDS011;1666;48.898;9.182;2023-02-01T07:54:19;6.85;;;4.00;;
3307;SDS011;1666;48.898;9.182;2023-02-01T07:56:51;7.28;;;4.10;;
3307;SDS011;1666;48.898;9.182;2023-02-01T07:59:21;9.52;;;4.55;;
3307;SDS011;1666;48.898;9.182;2023-02-01T08:01:51;12.40;;;4.32;;
3307;SDS011;1666;48.898;9.182;2023-02-01T08:04:18;9.05;;;3.97;;
3307;SDS011;1666;48.898;9.182;2023-02-01T08:06:48;16.08;;;4.50;;
3307;SDS011;1666;48.898;9.182;2023-02-01T08:09:18;9.20;;;4.35;;
3307;SDS011;1666;48.898;9.182;2023-02-01T08:11:48;9.75;;;4.30;;
3307;SDS011;1666;48.898;9.182;2023-02-01T08:14:20;7.38;;;3.80;;
3307;SDS011;1666;48.898;9.182;2023-02-01T08:16:50;6.38;;;3.78;;
3307;SDS011;1666;48.898;9.182;2023-02-01T08:19:20;9.07;;;4.40;;
3307;SDS011;1666;48.898;9.182;2023-02-01T08:21:49;11.10;;;3.60;;
3307;SDS011;1666;48.898;9.182;2023-02-01T08:24:19;7.00;;;3.53;;
3307;SDS011;1666;48.898;9.182;2023-02-01T08:26:51;10.93;;;3.53;;
3307;SDS011;1666;48.898;9.182;2023-02-01T08:29:21;7.47;;;3.47;;
3307;SDS011;1666;48.898;9.182;2023-02-01T08:31:51;9.90;;;3.95;;
3307;SDS011;1666;48.898;9.182;2023-02-01T08:34:21;12.25;;;4.00;;
3307;SDS011;1666;48.898;9.182;2023-02-01T08:36:52;10.40;;;3.65;;
3307;SDS011;1666;48.898;9.182;2023-02-01T08:39:26;7.55;;;3.70;;
3307;SDS011;1666;48.898;9.182;2023-02-01T08:41:59;14.45;;;3.97;;
3307;SDS011;1666;48.898;9.182;2023-02-01T08:47:11;7.80;;;3.40;;
3307;SDS011;1666;48.898;9.182;2023-02-01T08:49:40;11.77;;;4.20;;
3307;SDS011;1666;48.898;9.182;2023-02-01T08:52:10;11.27;;;3.90;;
3307;SDS011;1666;48.898;9.182;2023-02-01T08:54:41;9.68;;;3.38;;
3307;SDS011;1666;48.898;9.182;2023-02-01T08:57:14;13.18;;;3.90;;
3307;SDS011;1666;48.898;9.182;2023-02-01T08:59:44;10.50;;;3.20;;
3307;SDS011;1666;48.898;9.182;2023-02-01T09:02:14;11.73;;;3.70;;
3307;SDS011;1666;48.898;9.182;2023-02-01T09:04:45;10.35;;;3.65;;
3307;SDS011;1666;48.898;9.182;2023-02-01T09:07:15;8.30;;;3.90;;
3307;SDS011;1666;48.898;9.182;2023-02-01T09:09:45;12.13;;;3.60;;
3307;SDS011;1666;48.898;9.182;2023-02-01T09:12:18;9.45;;;3.58;;
3307;SDS011;1666;48.898;9.182;2023-02-01T09:14:48;11.93;;;3.60;;
3307;SDS011;1666;48.898;9.182;2023-02-01T09:17:18;10.00;;;3.17;;
3307;SDS011;1666;48.898;9.182;2023-02-01T09:19:48;10.80;;;3.28;;
3307;SDS011;1666;48.898;9.182;2023-02-01T09:22:18;10.38;;;3.38;;
3307;SDS011;1666;48.898;9.182;2023-02-01T09:24:47;5.93;;;3.38;;
3307;SDS011;1666;48.898;9.182;2023-02-01T09:27:22;9.23;;;3.60;;
3307;SDS011;1666;48.898;9.182;2023-02-01T09:29:52;11.05;;;3.58;;
3307;SDS011;1666;48.898;9.182;2023-02-01T09:32:22;12.70;;;4.50;;
3307;SDS011;1666;48.898;9.182;2023-02-01T09:34:53;10.63;;;3.40;;
3307;SDS011;1666;48.898;9.182;2023-02-01T09:37:23;12.98;;;4.47;;
3307;SDS011;1666;48.898;9.182;2023-02-01T09:39:52;14.23;;;3.78;;
3307;SDS011;1666;48.898;9.182;2023-02-01T09:42:30;10.07;;;3.55;;
3307;SDS011;1666;48.898;9.182;2023-02-01T09:45:18;9.60;;;3.38;;
3307;SDS011;1666;48.898;9.182;2023-02-01T09:47:53;9.40;;;3.55;;
3307;SDS011;1666;48.898;9.182;2023-02-01T09:50:28;14.75;;;3.75;;
3307;SDS011;1666;48.898;9.182;2023-02-01T09:53:04;9.02;;;3.42;;
3307;SDS011;1666;48.898;9.182;2023-02-01T09:55:40;12.07;;;3.30;;
3307;SDS011;1666;48.898;9.182;2023-02-01T09:58:16;11.57;;;3.55;;
3307;SDS011;1666;48.898;9.182;2023-02-01T10:00:51;10.50;;;3.85;;
3307;SDS011;1666;48.898;9.182;2023-02-01T10:03:23;11.88;;;2.92;;
3307;SDS011;1666;48.898;9.182;2023-02-01T10:06:09;10.32;;;3.25;;
3307;SDS011;1666;48.898;9.182;2023-02-01T10:09:02;13.65;;;3.42;;
3307;SDS011;1666;48.898;9.182;2023-02-01T10:11:56;12.75;;;3.45;;
3307;SDS011;1666;48.898;9.182;2023-02-01T10:14:53;15.40;;;3.40;;
3307;SDS011;1666;48.898;9.182;2023-02-01T10:17:32;8.82;;;3.10;;
3307;SDS011;1666;48.898;9.182;2023-02-01T10:20:36;10.40;;;3.25;;
3307;SDS011;1666;48.898;9.182;2023-02-01T10:23:26;11.73;;;2.58;;
3307;SDS011;1666;48.898;9.182;2023-02-01T10:26:17;13.88;;;3.22;;
3307;SDS011;1666;48.898;9.182;2023-02-01T10:28:49;14.57;;;3.40;;
3307;SDS011;1666;48.898;9.182;2023-02-01T10:31:24;8.27;;;3.08;;
3307;SDS011;1666;48.898;9.182;2023-02-01T10:33:58;9.32;;;3.22;;
3307;SDS011;1666;48.898;9.182;2023-02-01T10:36:30;13.13;;;3.13;;
3307;SDS011;1666;48.898;9.182;2023-02-01T10:39:03;9.80;;;3.03;;
3307;SDS011;1666;48.898;9.182;2023-02-01T10:41:34;12.93;;;3.20;;
3307;SDS011;1666;48.898;9.182;2023-02-01T10:44:07;9.32;;;3.40;;
3307;SDS011;1666;48.898;9.182;2023-02-01T10:46:44;15.52;;;3.45;;
3307;SDS011;1666;48.898;9.182;2023-02-01T10:49:16;12.90;;;3.00;;
3307;SDS011;1666;48.898;9.182;2023-02-01T10:51:51;8.70;;;3.03;;
3307;SDS011;1666;48.898;9.182;2023-02-01T10:54:31;10.32;;;2.95;;
3307;SDS011;1666;48.898;9.182;2023-02-01T10:57:06;14.35;;;3.47;;
3307;SDS011;1666;48.898;9.182;2023-02-01T10:59:37;13.95;;;3.60;;
3307;SDS011;1666;48.898;9.182;2023-02-01T11:02:19;8.40;;;3.30;;
3307;SDS011;1666;48.898;9.182;2023-02-01T11:05:01;10.75;;;2.70;;
3307;SDS011;1666;48.898;9.182;2023-02-01T11:07:32;11.07;;;3.13;;
3307;SDS011;1666;48.898;9.182;2023-02-01T11:10:03;17.83;;;3.33;;
3307;SDS011;1666;48.898;9.182;2023-02-01T11:12:34;11.55;;;3.55;;
3307;SDS011;1666;48.898;9.182;2023-02-01T11:15:13;10.93;;;3.42;;
3307;SDS011;1666;48.898;9.182;2023-02-01T11:17:51;14.15;;;3.33;;
3307;SDS011;1666;48.898;9.182;2023-02-01T11:20:26;8.25;;;3.30;;
3307;SDS011;1666;48.898;9.182;2023-02-01T11:23:11;14.75;;;2.95;;
3307;SDS011;1666;48.898;9.182;2023-02-01T11:25:50;9.48;;;3.03;;
3307;SDS011;1666;48.898;9.182;2023-02-01T11:28:22;13.32;;;3.60;;
3307;SDS011;1666;48.898;9.182;2023-02-01T11:30:55;25.42;;;3.10;;
3307;SDS011;1666;48.898;9.182;2023-02-01T11:33:31;10.63;;;2.85;;
3307;SDS011;1666;48.898;9.182;2023-02-01T11:36:06;18.20;;;4.63;;
3307;SDS011;1666;48.898;9.182;2023-02-01T11:38:38;13.45;;;2.90;;
3307;SDS011;1666;48.898;9.182;2023-02-01T11:41:14;10.80;;;3.00;;
3307;SDS011;1666;48.898;9.182;2023-02-01T11:43:51;9.80;;;2.67;;
3307;SDS011;1666;48.898;9.182;2023-02-01T11:46:24;11.18;;;2.58;;
3307;SDS011;1666;48.898;9.182;2023-02-01T11:49:14;12.25;;;2.70;;
3307;SDS011;1666;48.898;9.182;2023-02-01T11:51:53;7.63;;;2.60;;
3307;SDS011;1666;48.898;9.182;2023-02-01T11:54:41;12.52;;;2.90;;
3307;SDS011;1666;48.898;9.182;2023-02-01T11:57:29;12.50;;;2.10;;
3307;SDS011;1666;48.898;9.182;2023-02-01T12:00:13;10.00;;;2.58;;
3307;SDS011;1666;48.898;9.182;2023-02-01T12:03:00;9.95;;;2.97;;
3307;SDS011;1666;48.898;9.182;2023-02-01T12:05:53;9.40;;;2.50;;
3307;SDS011;1666;48.898;9.182;2023-02-01T12:08:32;9.18;;;2.38;;
3307;SDS011;1666;48.898;9.182;2023-02-01T12:11:38;13.23;;;3.15;;
3307;SDS011;1666;48.898;9.182;2023-02-01T12:14:20;10.45;;;2.65;;
3307;SDS011;1666;48.898;9.182;2023-02-01T12:17:06;11.73;;;2.25;;
3307;SDS011;1666;48.898;9.182;2023-02-01T12:19:53;8.93;;;2.38;;
3307;SDS011;1666;48.898;9.182;2023-02-01T12:22:51;7.35;;;2.28;;
3307;SDS011;1666;48.898;9.182;2023-02-01T12:25:33;7.40;;;2.35;;
3307;SDS011;1666;48.898;9.182;2023-02-01T12:28:19;10.48;;;2.75;;
3307;SDS011;1666;48.898;9.182;2023-02-01T12:31:09;9.65;;;2.60;;
3307;SDS011;1666;48.898;9.182;2023-02-01T12:33:54;10.27;;;2.78;;
3307;SDS011;1666;48.898;9.182;2023-02-01T12:36:36;9.75;;;3.08;;
3307;SDS011;1666;48.898;9.182;2023-02-01T12:39:19;19.02;;;2.97;;
3307;SDS011;1666;48.898;9.182;2023-02-01T12:41:54;9.00;;;2.30;;
3307;SDS011;1666;48.898;9.182;2023-02-01T12:47:05;9.73;;;2.70;;
3307;SDS011;1666;48.898;9.182;2023-02-01T12:49:48;7.65;;;2.60;;
3307;SDS011;1666;48.898;9.182;2023-02-01T12:52:26;12.82;;;3.28;;
3307;SDS011;1666;48.898;9.182;2023-02-01T12:55:06;9.32;;;2.60;;
3307;SDS011;1666;48.898;9.182;2023-02-01T12:57:46;12.48;;;2.88;;
3307;SDS011;1666;48.898;9.182;2023-02-01T13:00:22;10.10;;;2.67;;
3307;SDS011;1666;48.898;9.182;2023-02-01T13:03:00;7.18;;;2.40;;
3307;SDS011;1666;48.898;9.182;2023-02-01T13:05:37;6.05;;;2.53;;
3307;SDS011;1666;48.898;9.182;2023-02-01T13:08:14;12.15;;;3.60;;
3307;SDS011;1666;48.898;9.182;2023-02-01T13:10:51;9.00;;;2.78;;
3307;SDS011;1666;48.898;9.182;2023-02-01T13:13:28;11.30;;;3.08;;
3307;SDS011;1666;48.898;9.182;2023-02-01T13:16:02;16.23;;;3.03;;
3307;SDS011;1666;48.898;9.182;2023-02-01T13:18:46;10.38;;;2.50;;
3307;SDS011;1666;48.898;9.182;2023-02-01T13:21:20;11.35;;;3.10;;
3307;SDS011;1666;48.898;9.182;2023-02-01T13:23:54;9.95;;;2.70;;
3307;SDS011;1666;48.898;9.182;2023-02-01T13:26:27;9.98;;;2.92;;
3307;SDS011;1666;48.898;9.182;2023-02-01T13:28:58;6.25;;;2.50;;
3307;SDS011;1666;48.898;9.182;2023-02-01T13:34:31;8.52;;;3.30;;
3307;SDS011;1666;48.898;9.182;2023-02-01T13:37:20;10.88;;;2.80;;
3307;SDS011;1666;48.898;9.182;2023-02-01T13:40:05;10.48;;;3.05;;
3307;SDS011;1666;48.898;9.182;2023-02-01T13:42:55;8.13;;;3.20;;
3307;SDS011;1666;48.898;9.182;2023-02-01T13:45:28;10.82;;;2.67;;
3307;SDS011;1666;48.898;9.182;2023-02-01T13:48:01;9.32;;;2.80;;
3307;SDS011;1666;48.898;9.182;2023-02-01T13:50:35;6.38;;;2.33;;
3307;SDS011;1666;48.898;9.182;2023-02-01T13:53:13;7.30;;;2.35;;
3307;SDS011;1666;48.898;9.182;2023-02-01T13:55:47;9.82;;;2.78;;
3307;SDS011;1666;48.898;9.182;2023-02-01T13:58:32;13.13;;;3.08;;
3307;SDS011;1666;48.898;9.182;2023-02-01T14:07:18;11.55;;;2.80;;
3307;SDS011;1666;48.898;9.182;2023-02-01T14:09:50;8.23;;;2.33;;
3307;SDS011;1666;48.898;9.182;2023-02-01T14:15:20;11.65;;;2.50;;
3307;SDS011;1666;48.898;9.182;2023-02-01T14:17:52;6.82;;;2.92;;
3307;SDS011;1666;48.898;9.182;2023-02-01T14:23:23;13.93;;;3.40;;
3307;SDS011;1666;48.898;9.182;2023-02-01T14:26:12;12.82;;;3.30;;
3307;SDS011;1666;48.898;9.182;2023-02-01T14:28:51;7.13;;;2.40;;
3307;SDS011;1666;48.898;9.182;2023-02-01T14:31:34;13.90;;;3.28;;
3307;SDS011;1666;48.898;9.182;2023-02-01T14:36:47;12.82;;;2.80;;
3307;SDS011;1666;48.898;9.182;2023-02-01T14:39:33;9.52;;;2.78;;
3307;SDS011;1666;48.898;9.182;2023-02-01T14:42:15;14.85;;;3.20;;
3307;SDS011;1666;48.898;9.182;2023-02-01T14:44:54;9.88;;;2.28;;
3307;SDS011;1666;48.898;9.182;2023-02-01T14:47:31;8.45;;;2.80;;
3307;SDS011;1666;48.898;9.182;2023-02-01T14:53:11;9.10;;;3.00;;
3307;SDS011;1666;48.898;9.182;2023-02-01T14:55:51;9.63;;;3.05;;
3307;SDS011;1666;48.898;9.182;2023-02-01T14:58:32;12.77;;;2.90;;
3307;SDS011;1666;48.898;9.182;2023-02-01T15:01:16;9.48;;;2.97;;
3307;SDS011;1666;48.898;9.182;2023-02-01T15:03:58;11.75;;;3.03;;
3307;SDS011;1666;48.898;9.182;2023-02-01T15:06:33;9.48;;;3.35;;
3307;SDS011;1666;48.898;9.182;2023-02-01T15:09:08;10.10;;;2.75;;
3307;SDS011;1666;48.898;9.182;2023-02-01T15:11:53;9.65;;;2.75;;
3307;SDS011;1666;48.898;9.182;2023-02-01T15:14:28;15.63;;;3.03;;
3307;SDS011;1666;48.898;9.182;2023-02-01T15:17:00;7.72;;;2.92;;
3307;SDS011;1666;48.898;9.182;2023-02-01T15:19:33;8.20;;;2.58;;
3307;SDS011;1666;48.898;9.182;2023-02-01T15:22:03;9.88;;;2.38;;
3307;SDS011;1666;48.898;9.182;2023-02-01T15:24:33;8.45;;;2.10;;
3307;SDS011;1666;48.898;9.182;2023-02-01T15:27:03;6.60;;;2.30;;
3307;SDS011;1666;48.898;9.182;2023-02-01T15:29:34;9.73;;;2.33;;
3307;SDS011;1666;48.898;9.182;2023-02-01T15:32:04;10.30;;;2.25;;
3307;SDS011;1666;48.898;9.182;2023-02-01T15:34:48;10.93;;;2.75;;
3307;SDS011;1666;48.898;9.182;2023-02-01T15:37:20;8.88;;;2.70;;
3307;SDS011;1666;48.898;9.182;2023-02-01T15:40:03;14.27;;;2.80;;
3307;SDS011;1666;48.898;9.182;2023-02-01T15:42:48;11.20;;;2.92;;
3307;SDS011;1666;48.898;9.182;2023-02-01T15:45:21;10.18;;;2.53;;
3307;SDS011;1666;48.898;9.182;2023-02-01T15:47:54;13.32;;;2.85;;
3307;SDS011;1666;48.898;9.182;2023-02-01T15:50:29;11.52;;;2.97;;
3307;SDS011;1666;48.898;9.182;2023-02-01T15:53:00;9.45;;;2.42;;
3307;SDS011;1666;48.898;9.182;2023-02-01T15:55:33;8.32;;;2.15;;
3307;SDS011;1666;48.898;9.182;2023-02-01T15:58:09;9.00;;;2.70;;
3307;SDS011;1666;48.898;9.182;2023-02-01T16:00:46;7.88;;;2.38;;
3307;SDS011;1666;48.898;9.182;2023-02-01T16:03:35;11.57;;;2.55;;
3307;SDS011;1666;48.898;9.182;2023-02-01T16:06:10;8.70;;;2.70;;
3307;SDS011;1666;48.898;9.182;2023-02-01T16:08:55;12.75;;;3.40;;
3307;SDS011;1666;48.898;9.182;2023-02-01T16:11:31;11.80;;;2.88;;
3307;SDS011;1666;48.898;9.182;2023-02-01T16:14:08;10.18;;;3.22;;
3307;SDS011;1666;48.898;9.182;2023-02-01T16:16:38;9.38;;;3.28;;
3307;SDS011;1666;48.898;9.182;2023-02-01T16:19:08;14.80;;;3.17;;
3307;SDS011;1666;48.898;9.182;2023-02-01T16:21:41;9.13;;;2.05;;
3307;SDS011;1666;48.898;9.182;2023-02-01T16:24:11;10.48;;;3.63;;
3307;SDS011;1666;48.898;9.182;2023-02-01T16:26:41;13.65;;;3.13;;
3307;SDS011;1666;48.898;9.182;2023-02-01T16:29:10;9.23;;;2.90;;